createdAt,value
2022-08-25T00:00:17.097Z,23.90
2022-08-25T00:03:02.933Z,23.86
2022-08-25T00:05:50.131Z,23.84
2022-08-25T00:08:36.953Z,23.76
2022-08-25T00:11:23.981Z,23.76
2022-08-25T00:14:13.687Z,23.69
2022-08-25T00:16:59.530Z,23.64
2022-08-25T00:19:45.201Z,23.50
2022-08-25T00:22:30.480Z,23.46
2022-08-25T00:25:15.908Z,23.50
2022-08-25T00:28:04.152Z,23.50
2022-08-25T00:30:53.086Z,23.47
2022-08-25T00:33:38.646Z,23.41
2022-08-25T00:36:23.712Z,23.33
2022-08-25T00:39:10.970Z,23.24
2022-08-25T00:41:57.689Z,23.18
2022-08-25T00:44:43.072Z,23.20
2022-08-25T00:47:28.428Z,23.21
2022-08-25T00:50:15.583Z,23.20
2022-08-25T00:53:04.470Z,23.17
2022-08-25T00:55:50.869Z,23.17
2022-08-25T00:58:36.946Z,23.11
2022-08-25T01:01:22.346Z,23.08
2022-08-25T01:04:08.244Z,23.06
2022-08-25T01:06:54.094Z,23.06
2022-08-25T01:09:39.483Z,23.03
2022-08-25T01:12:26.843Z,23.05
2022-08-25T01:15:13.403Z,23.09
2022-08-25T01:17:59.779Z,23.13
2022-08-25T01:20:50.231Z,23.02
2022-08-25T01:23:35.232Z,22.92
2022-08-25T01:26:28.328Z,22.84
2022-08-25T01:29:15.529Z,22.76
2022-08-25T01:32:04.557Z,22.78
2022-08-25T01:34:49.696Z,22.68
2022-08-25T01:37:37.111Z,22.54
2022-08-25T01:40:22.580Z,22.39
2022-08-25T01:43:07.842Z,22.30
2022-08-25T01:45:53.133Z,22.22
2022-08-25T01:48:38.855Z,22.24
2022-08-25T01:51:25.663Z,22.20
2022-08-25T01:54:10.875Z,22.18
2022-08-25T01:56:55.856Z,22.13
2022-08-25T01:59:40.777Z,22.04
2022-08-25T02:02:26.375Z,21.86
2022-08-25T02:05:13.652Z,21.67
2022-08-25T02:07:58.796Z,21.33
2022-08-25T02:10:44.351Z,21.12
2022-08-25T02:13:31.154Z,21.08
2022-08-25T02:16:20.302Z,21.09
2022-08-25T02:19:08.563Z,21.06
2022-08-25T02:21:53.825Z,21.08
2022-08-25T02:24:39.021Z,21.07
2022-08-25T02:27:24.624Z,21.01
2022-08-25T02:30:10.569Z,21.04
2022-08-25T02:32:55.765Z,20.94
2022-08-25T02:35:41.237Z,20.90
2022-08-25T02:38:26.811Z,20.85
2022-08-25T02:41:17.841Z,20.85
2022-08-25T02:44:05.227Z,20.82
2022-08-25T02:46:50.530Z,20.77
2022-08-25T02:49:35.481Z,20.76
2022-08-25T02:52:20.924Z,20.70
2022-08-25T02:55:09.240Z,20.65
2022-08-25T02:57:54.437Z,20.58
2022-08-25T03:00:39.891Z,20.50
2022-08-25T03:03:25.340Z,20.46
2022-08-25T03:06:12.829Z,20.41
2022-08-25T03:08:58.455Z,20.44
2022-08-25T03:11:43.400Z,20.53
2022-08-25T03:14:28.667Z,20.62
2022-08-25T03:17:14.053Z,20.67
2022-08-25T03:19:59.048Z,20.61
2022-08-25T03:22:43.965Z,20.59
2022-08-25T03:25:29.408Z,20.55
2022-08-25T03:28:14.664Z,20.52
2022-08-25T03:31:02.827Z,20.51
2022-08-25T03:33:48.285Z,20.50
2022-08-25T03:36:33.216Z,20.48
2022-08-25T03:39:19.943Z,20.46
2022-08-25T03:42:05.136Z,20.43
2022-08-25T03:44:50.000Z,20.46
2022-08-25T03:47:35.081Z,20.27
2022-08-25T03:50:21.911Z,20.18
2022-08-25T03:53:07.049Z,20.09
2022-08-25T03:55:55.879Z,20.02
2022-08-25T03:58:41.123Z,19.97
2022-08-25T04:01:26.560Z,19.93
2022-08-25T04:04:13.393Z,19.92
2022-08-25T04:06:58.364Z,20.01
2022-08-25T04:09:43.933Z,19.94
2022-08-25T04:12:29.059Z,19.88
2022-08-25T04:15:14.730Z,19.88
2022-08-25T04:17:59.749Z,19.86
2022-08-25T04:20:46.751Z,19.86
2022-08-25T04:23:32.545Z,19.87
2022-08-25T04:26:24.353Z,19.87
2022-08-25T04:29:11.797Z,19.88
2022-08-25T04:31:57.251Z,19.89
2022-08-25T04:34:42.564Z,19.87
2022-08-25T04:37:27.449Z,19.84
2022-08-25T04:40:13.005Z,19.83
2022-08-25T04:42:58.998Z,19.86
2022-08-25T04:45:44.361Z,19.95
2022-08-25T04:48:29.583Z,20.00
2022-08-25T04:51:18.169Z,20.02
2022-08-25T04:54:06.289Z,20.06
2022-08-25T04:56:58.036Z,20.10
2022-08-25T04:59:43.848Z,20.18
2022-08-25T05:02:28.726Z,20.26
2022-08-25T05:05:14.298Z,20.27
2022-08-25T05:07:59.346Z,20.35
2022-08-25T05:10:44.688Z,20.42
2022-08-25T05:13:30.618Z,20.49
2022-08-25T05:16:17.205Z,20.51
2022-08-25T05:19:02.474Z,20.55
2022-08-25T05:21:47.696Z,20.60
2022-08-25T05:24:32.520Z,20.65
2022-08-25T05:27:17.846Z,20.72
2022-08-25T05:30:03.781Z,20.82
2022-08-25T05:32:49.168Z,20.90
2022-08-25T05:35:34.731Z,20.96
2022-08-25T05:38:19.957Z,21.05
2022-08-25T05:41:08.890Z,21.10
2022-08-25T05:43:54.432Z,21.15
2022-08-25T05:46:39.859Z,21.24
2022-08-25T05:49:24.913Z,21.24
2022-08-25T05:52:10.278Z,21.33
2022-08-25T05:54:55.625Z,21.40
2022-08-25T05:57:40.496Z,21.42
2022-08-25T06:00:25.589Z,21.49
2022-08-25T06:03:10.858Z,21.64
2022-08-25T06:06:05.736Z,21.81
2022-08-25T06:08:51.748Z,22.05
2022-08-25T06:11:38.660Z,22.26
2022-08-25T06:14:24.245Z,22.29
2022-08-25T06:17:09.785Z,22.26
2022-08-25T06:19:54.895Z,22.26
2022-08-25T06:22:40.136Z,22.31
2022-08-25T06:25:26.842Z,22.30
2022-08-25T06:28:11.907Z,22.36
2022-08-25T06:31:01.631Z,22.37
2022-08-25T06:33:46.783Z,22.46
2022-08-25T06:36:32.978Z,22.41
2022-08-25T06:39:18.505Z,22.47
2022-08-25T06:42:04.255Z,22.56
2022-08-25T06:44:49.308Z,22.63
2022-08-25T06:47:34.740Z,22.71
2022-08-25T06:50:20.272Z,22.78
2022-08-25T06:53:05.732Z,22.90
2022-08-25T06:55:58.352Z,22.99
2022-08-25T06:58:43.576Z,23.16
2022-08-25T07:01:28.661Z,23.25
2022-08-25T07:04:17.008Z,23.38
2022-08-25T07:07:03.508Z,23.47
2022-08-25T07:09:48.565Z,23.60
2022-08-25T07:12:33.522Z,23.81
2022-08-25T07:15:20.872Z,23.94
2022-08-25T07:18:07.258Z,24.13
2022-08-25T07:20:52.727Z,24.42
2022-08-25T07:23:38.093Z,24.65
2022-08-25T07:26:37.225Z,24.80
2022-08-25T07:29:31.728Z,25.02
2022-08-25T07:32:18.095Z,25.29
2022-08-25T07:35:03.818Z,25.69
2022-08-25T07:37:52.149Z,26.18
2022-08-25T07:40:42.998Z,27.06
2022-08-25T07:43:28.444Z,27.82
2022-08-25T07:46:13.696Z,28.42
2022-08-25T07:48:59.108Z,28.68
2022-08-25T07:52:04.205Z,28.96
2022-08-25T07:54:50.914Z,29.32
2022-08-25T07:57:35.894Z,29.71
2022-08-25T08:00:21.493Z,30.09
2022-08-25T08:03:15.935Z,29.37
2022-08-25T08:06:11.969Z,30.04
2022-08-25T08:08:57.975Z,30.66
2022-08-25T08:11:53.741Z,30.45
2022-08-25T08:14:39.573Z,30.79
2022-08-25T08:17:29.858Z,31.00
2022-08-25T08:20:14.789Z,31.73
2022-08-25T08:23:00.658Z,31.75
2022-08-25T08:25:47.008Z,32.49
2022-08-25T08:28:31.783Z,32.87
2022-08-25T08:31:19.814Z,32.36
2022-08-25T08:34:05.261Z,32.33
2022-08-25T08:36:50.069Z,32.59
2022-08-25T08:39:37.006Z,32.74
2022-08-25T08:42:57.534Z,32.43
2022-08-25T08:45:51.586Z,32.54
2022-08-25T08:48:55.614Z,33.32
2022-08-25T08:51:54.352Z,34.07
2022-08-25T08:54:42.944Z,34.10
2022-08-25T08:57:29.420Z,33.76
2022-08-25T09:00:15.468Z,33.36
2022-08-25T09:03:12.700Z,33.44
2022-08-25T09:06:03.313Z,34.16
2022-08-25T09:08:55.277Z,34.53
2022-08-25T09:12:08.536Z,34.28
2022-08-25T09:14:54.301Z,34.65
2022-08-25T09:18:04.700Z,34.78
2022-08-25T09:20:55.611Z,34.94
2022-08-25T09:24:02.859Z,34.87
2022-08-25T09:26:48.648Z,34.88
2022-08-25T09:29:45.842Z,34.05
2022-08-25T09:32:35.365Z,32.75
2022-08-25T09:35:28.072Z,31.71
2022-08-25T09:38:13.883Z,30.78
2022-08-25T09:41:00.924Z,30.63
2022-08-25T09:43:53.572Z,30.89
2022-08-25T09:46:38.821Z,30.86
2022-08-25T09:49:32.076Z,30.50
2022-08-25T09:52:29.752Z,30.30
2022-08-25T09:55:22.559Z,30.07
2022-08-25T09:58:18.487Z,29.91
2022-08-25T10:01:12.155Z,29.71
2022-08-25T10:03:57.232Z,29.62
2022-08-25T10:06:47.022Z,29.43
2022-08-25T10:09:41.912Z,29.34
2022-08-25T10:12:42.587Z,29.27
2022-08-25T10:15:34.685Z,29.39
2022-08-25T10:18:27.025Z,29.52
2022-08-25T10:21:17.302Z,29.58
2022-08-25T10:24:02.880Z,29.47
2022-08-25T10:27:07.414Z,29.32
2022-08-25T10:30:34.428Z,29.12
2022-08-25T10:33:54.852Z,29.53
2022-08-25T10:37:02.327Z,29.82
2022-08-25T10:40:13.332Z,29.62
2022-08-25T10:43:19.196Z,29.70
2022-08-25T10:46:43.211Z,29.43
2022-08-25T10:49:45.820Z,29.24
2022-08-25T10:52:54.081Z,29.27
2022-08-25T10:56:10.317Z,29.09
2022-08-25T10:59:12.394Z,29.48
2022-08-25T11:02:19.910Z,29.47
2022-08-25T11:05:07.364Z,29.45
2022-08-25T11:08:19.186Z,29.38
2022-08-25T11:11:23.177Z,29.38
2022-08-25T11:14:19.125Z,29.47
2022-08-25T11:17:16.880Z,29.52
2022-08-25T11:20:15.409Z,29.52
2022-08-25T11:23:17.142Z,29.50
2022-08-25T11:26:09.855Z,29.20
2022-08-25T11:29:05.989Z,29.04
2022-08-25T11:31:59.459Z,29.13
2022-08-25T11:34:46.354Z,29.23
2022-08-25T11:37:32.795Z,29.42
2022-08-25T11:40:31.000Z,29.31
2022-08-25T11:43:28.893Z,29.36
2022-08-25T11:47:25.303Z,29.29
2022-08-25T11:50:30.166Z,29.54
2022-08-25T11:53:28.158Z,29.57
2022-08-25T11:56:37.368Z,29.91
2022-08-25T11:59:50.242Z,30.61
2022-08-25T12:02:42.593Z,30.73
2022-08-25T12:05:30.754Z,31.15
2022-08-25T12:08:57.757Z,31.66
2022-08-25T12:11:50.820Z,32.26
2022-08-25T12:14:42.142Z,32.95
2022-08-25T12:17:41.123Z,33.21
2022-08-25T12:20:55.120Z,33.62
2022-08-25T12:23:46.420Z,33.43
2022-08-25T12:26:48.530Z,33.38
2022-08-25T12:29:46.443Z,33.08
2022-08-25T12:32:41.012Z,32.74
2022-08-25T12:35:45.097Z,33.23
2022-08-25T12:38:31.983Z,33.29
2022-08-25T12:41:27.305Z,34.13
2022-08-25T12:44:34.812Z,34.37
2022-08-25T12:47:19.527Z,34.34
2022-08-25T12:50:27.821Z,34.69
2022-08-25T12:53:17.527Z,35.03
2022-08-25T12:56:06.062Z,35.09
2022-08-25T12:59:19.353Z,35.74
2022-08-25T13:02:35.971Z,35.24
2022-08-25T13:05:36.440Z,34.79
2022-08-25T13:08:24.937Z,35.01
2022-08-25T13:11:37.809Z,34.90
2022-08-25T13:14:33.360Z,35.73
2022-08-25T13:17:35.584Z,35.99
2022-08-25T13:20:26.751Z,35.75
2022-08-25T13:23:12.349Z,35.62
2022-08-25T13:25:58.523Z,35.08
2022-08-25T13:28:50.629Z,34.80
2022-08-25T13:31:38.181Z,34.43
2022-08-25T13:34:43.765Z,33.73
2022-08-25T13:37:30.265Z,32.96
2022-08-25T13:40:19.738Z,32.79
2022-08-25T13:43:09.017Z,32.74
2022-08-25T13:45:54.283Z,32.76
2022-08-25T13:48:49.881Z,32.64
2022-08-25T13:51:36.182Z,32.31
2022-08-25T13:54:31.064Z,32.10
2022-08-25T13:57:25.372Z,32.02
2022-08-25T14:00:11.601Z,32.15
2022-08-25T14:02:56.957Z,32.08
2022-08-25T14:05:43.908Z,32.19
2022-08-25T14:08:36.528Z,32.15
2022-08-25T14:11:34.533Z,32.06
2022-08-25T14:14:22.633Z,31.86
2022-08-25T14:17:22.358Z,31.65
2022-08-25T14:20:27.808Z,31.66
2022-08-25T14:23:18.861Z,31.62
2022-08-25T14:26:04.680Z,31.43
2022-08-25T14:28:52.227Z,31.55
2022-08-25T14:31:39.851Z,31.47
2022-08-25T14:34:29.273Z,31.42
2022-08-25T14:37:17.988Z,31.44
2022-08-25T14:40:04.254Z,31.26
2022-08-25T14:42:49.939Z,31.30
2022-08-25T14:45:38.365Z,31.38
2022-08-25T14:48:25.984Z,31.30
2022-08-25T14:51:13.306Z,31.25
2022-08-25T14:54:02.496Z,31.18
2022-08-25T14:56:47.676Z,31.12
2022-08-25T14:59:33.074Z,31.00
2022-08-25T15:02:22.890Z,30.86
2022-08-25T15:05:19.730Z,30.77
2022-08-25T15:08:04.756Z,30.69
2022-08-25T15:10:51.502Z,30.84
2022-08-25T15:13:36.483Z,30.86
2022-08-25T15:16:34.031Z,30.84
2022-08-25T15:19:24.251Z,30.81
2022-08-25T15:22:10.105Z,30.87
2022-08-25T15:24:55.913Z,30.89
2022-08-25T15:27:41.098Z,30.96
2022-08-25T15:30:31.022Z,30.76
2022-08-25T15:33:16.657Z,30.74
2022-08-25T15:36:02.761Z,30.67
2022-08-25T15:38:48.447Z,30.74
2022-08-25T15:41:33.693Z,30.79
2022-08-25T15:44:18.970Z,30.70
2022-08-25T15:47:04.305Z,30.74
2022-08-25T15:49:50.150Z,30.62
2022-08-25T15:52:46.381Z,30.64
2022-08-25T15:55:33.752Z,30.56
2022-08-25T15:58:19.200Z,30.64
2022-08-25T16:01:04.373Z,30.53
2022-08-25T16:03:50.556Z,30.64
2022-08-25T16:06:35.755Z,30.62
2022-08-25T16:09:23.027Z,30.53
2022-08-25T16:12:08.979Z,30.59
2022-08-25T16:14:54.840Z,30.40
2022-08-25T16:17:40.746Z,30.47
2022-08-25T16:20:31.590Z,30.51
2022-08-25T16:23:19.388Z,30.54
2022-08-25T16:26:06.386Z,30.54
2022-08-25T16:28:51.563Z,30.51
2022-08-25T16:31:36.678Z,30.43
2022-08-25T16:34:24.310Z,30.44
2022-08-25T16:37:09.979Z,30.28
2022-08-25T16:39:56.286Z,30.02
2022-08-25T16:42:41.764Z,29.90
2022-08-25T16:45:28.024Z,29.90
2022-08-25T16:48:13.028Z,29.95
2022-08-25T16:50:57.943Z,30.10
2022-08-25T16:53:43.239Z,30.20
2022-08-25T16:56:30.452Z,30.25
2022-08-25T16:59:15.627Z,30.15
2022-08-25T17:02:00.492Z,29.86
2022-08-25T17:04:45.790Z,29.77
2022-08-25T17:07:30.551Z,29.75
2022-08-25T17:10:16.976Z,29.76
2022-08-25T17:13:02.735Z,29.75
2022-08-25T17:15:48.793Z,29.61
2022-08-25T17:18:38.269Z,29.53
2022-08-25T17:21:25.107Z,29.51
2022-08-25T17:24:10.633Z,29.54
2022-08-25T17:26:55.713Z,29.46
2022-08-25T17:29:41.090Z,29.36
2022-08-25T17:32:30.276Z,29.47
2022-08-25T17:35:15.905Z,29.49
2022-08-25T17:38:01.357Z,29.46
2022-08-25T17:40:47.078Z,29.39
2022-08-25T17:43:33.384Z,29.24
2022-08-25T17:46:18.544Z,29.20
2022-08-25T17:49:05.129Z,29.16
2022-08-25T17:51:50.704Z,29.09
2022-08-25T17:54:35.937Z,29.01
2022-08-25T17:57:21.533Z,29.01
2022-08-25T18:00:08.076Z,28.98
2022-08-25T18:02:53.222Z,28.95
2022-08-25T18:05:39.432Z,28.91
2022-08-25T18:08:29.915Z,28.87
2022-08-25T18:11:21.423Z,28.71
2022-08-25T18:14:06.869Z,28.62
2022-08-25T18:16:55.896Z,28.55
2022-08-25T18:19:40.843Z,28.45
2022-08-25T18:22:25.782Z,28.37
2022-08-25T18:25:13.970Z,28.27
2022-08-25T18:27:59.169Z,28.19
2022-08-25T18:30:46.151Z,28.06
2022-08-25T18:33:31.570Z,27.98
2022-08-25T18:36:16.968Z,27.92
2022-08-25T18:39:02.660Z,27.91
2022-08-25T18:41:48.013Z,27.82
2022-08-25T18:44:33.390Z,27.69
2022-08-25T18:47:18.868Z,27.61
2022-08-25T18:50:07.568Z,27.50
2022-08-25T18:52:54.664Z,27.45
2022-08-25T18:55:41.366Z,27.40
2022-08-25T18:58:27.080Z,27.32
2022-08-25T19:01:14.108Z,27.29
2022-08-25T19:03:59.835Z,27.30
2022-08-25T19:06:45.290Z,27.14
2022-08-25T19:09:31.104Z,27.05
2022-08-25T19:12:22.548Z,27.00
2022-08-25T19:15:09.107Z,26.95
2022-08-25T19:17:55.373Z,26.90
2022-08-25T19:20:42.152Z,26.82
2022-08-25T19:23:27.680Z,26.76
2022-08-25T19:26:13.919Z,26.69
2022-08-25T19:29:06.847Z,26.63
2022-08-25T19:31:54.462Z,26.55
2022-08-25T19:34:42.141Z,26.50
2022-08-25T19:37:29.341Z,26.37
2022-08-25T19:40:14.795Z,26.28
2022-08-25T19:43:05.111Z,26.18
2022-08-25T19:45:51.771Z,26.16
2022-08-25T19:48:37.061Z,26.11
2022-08-25T19:51:22.512Z,26.02
2022-08-25T19:54:10.148Z,25.93
2022-08-25T19:56:55.885Z,25.86
2022-08-25T19:59:43.565Z,25.77
2022-08-25T20:02:29.672Z,25.71
2022-08-25T20:05:15.319Z,25.63
2022-08-25T20:08:00.724Z,25.59
2022-08-25T20:10:46.184Z,25.53
2022-08-25T20:13:32.557Z,25.50
2022-08-25T20:16:17.967Z,25.44
2022-08-25T20:19:06.017Z,25.42
2022-08-25T20:21:54.258Z,25.36
2022-08-25T20:24:39.718Z,25.15
2022-08-25T20:27:31.554Z,25.11
2022-08-25T20:30:26.133Z,25.00
2022-08-25T20:33:11.309Z,24.94
2022-08-25T20:35:57.053Z,24.90
2022-08-25T20:38:43.510Z,24.80
2022-08-25T20:41:28.736Z,24.80
2022-08-25T20:44:14.994Z,24.73
2022-08-25T20:47:05.653Z,24.71
2022-08-25T20:52:36.738Z,24.60
2022-08-25T20:55:24.353Z,24.60
2022-08-25T20:58:09.406Z,24.54
2022-08-25T21:00:54.532Z,24.52
2022-08-25T21:03:39.908Z,24.49
2022-08-25T21:06:25.225Z,24.50
2022-08-25T21:09:16.167Z,24.51
2022-08-25T21:12:02.690Z,24.45
2022-08-25T21:14:48.047Z,24.47
2022-08-25T21:17:33.381Z,24.47
2022-08-25T21:20:18.460Z,24.49
2022-08-25T21:23:03.579Z,24.47
2022-08-25T21:25:51.358Z,24.42
2022-08-25T21:28:36.291Z,24.43
2022-08-25T21:31:21.243Z,24.42
2022-08-25T21:34:06.630Z,24.44
2022-08-25T21:36:53.633Z,24.41
2022-08-25T21:39:39.014Z,24.39
2022-08-25T21:42:26.316Z,24.38
2022-08-25T21:45:12.205Z,24.37
2022-08-25T21:47:58.064Z,24.38
2022-08-25T21:50:43.526Z,24.44
2022-08-25T21:53:28.818Z,24.41
2022-08-25T21:56:18.812Z,24.39
2022-08-25T21:59:07.413Z,24.36
2022-08-25T22:01:57.828Z,24.33
2022-08-25T22:04:43.757Z,24.29
2022-08-25T22:07:28.556Z,24.25
2022-08-25T22:10:20.273Z,24.22
2022-08-25T22:13:05.503Z,24.15
2022-08-25T22:15:52.073Z,24.12
2022-08-25T22:18:38.075Z,24.09
2022-08-25T22:21:23.413Z,24.09
2022-08-25T22:24:10.025Z,24.07
2022-08-25T22:26:56.053Z,24.01
2022-08-25T22:29:41.113Z,23.99
2022-08-25T22:32:26.425Z,23.95
2022-08-25T22:35:11.748Z,23.92
2022-08-25T22:37:58.343Z,23.87
2022-08-25T22:40:43.682Z,23.83
2022-08-25T22:43:29.145Z,23.85
2022-08-25T22:46:14.799Z,23.79
2022-08-25T22:49:02.464Z,23.74
2022-08-25T22:51:47.438Z,23.70
2022-08-25T22:54:32.542Z,23.67
2022-08-25T22:57:18.061Z,23.60
2022-08-25T23:00:08.298Z,23.59
2022-08-25T23:02:53.573Z,23.57
2022-08-25T23:05:39.844Z,23.59
2022-08-25T23:08:38.201Z,23.58
2022-08-25T23:11:26.202Z,23.58
2022-08-25T23:14:14.173Z,23.61
2022-08-25T23:16:58.964Z,23.56
2022-08-25T23:19:43.829Z,23.51
2022-08-25T23:22:29.110Z,23.46
2022-08-25T23:25:14.557Z,23.45
2022-08-25T23:28:00.119Z,23.45
2022-08-25T23:30:51.790Z,23.49
2022-08-25T23:33:45.221Z,23.55
2022-08-25T23:36:30.218Z,23.53
2022-08-25T23:39:15.579Z,23.53
2022-08-25T23:42:00.847Z,23.50
2022-08-25T23:44:46.992Z,23.49
2022-08-25T23:47:32.136Z,23.47
2022-08-25T23:50:17.626Z,23.41
2022-08-25T23:53:03.412Z,23.38
2022-08-25T23:55:53.053Z,23.32
2022-08-25T23:58:39.398Z,23.30
